Time;durP1;ratioP1;P1;durP2;ratioP2;P2;SDS_P1;SDS_P2;PMS_P1;PMS_P2;Temp;Humidity;BMP_temperature;BMP_pressure;BME280_temperature;BME280_humidity;BME280_pressure;Samples;Min_cycle;Max_cycle;Signal;HPM_P1;HPM_P2
2023/02/17 00:00:27;;;;;;;10.53;9.53;;;;;;;;;;4970620;28;20189;-70
2023/02/17 00:02:57;;;;;;;10.60;9.70;;;;;;;;;;4974004;28;20275;-70
2023/02/17 00:05:22;;;;;;;11.63;10.53;;;;;;;;;;4980661;28;20541;-70
2023/02/17 00:07:47;;;;;;;11.93;10.73;;;;;;;;;;4974651;28;20433;-71
2023/02/17 00:10:13;;;;;;;11.93;10.83;;;;;;;;;;4978422;28;20213;-70
2023/02/17 00:12:38;;;;;;;11.47;10.37;;;;;;;;;;4973584;28;20596;-70
2023/02/17 00:15:03;;;;;;;12.07;10.90;;;;;;;;;;4985474;28;20795;-70
2023/02/17 00:17:29;;;;;;;12.00;10.80;;;;;;;;;;4982194;28;20219;-69
2023/02/17 00:19:54;;;;;;;12.37;11.17;;;;;;;;;;4987189;28;20233;-70
2023/02/17 00:22:19;;;;;;;11.77;10.57;;;;;;;;;;4984298;28;20565;-69
2023/02/17 00:24:45;;;;;;;11.80;10.70;;;;;;;;;;4988014;28;20681;-69
2023/02/17 00:27:10;;;;;;;11.53;10.43;;;;;;;;;;4985703;28;20182;-69
2023/02/17 00:29:35;;;;;;;12.20;11.00;;;;;;;;;;4983273;28;20177;-69
2023/02/17 00:32:01;;;;;;;12.23;11.10;;;;;;;;;;4986121;28;20274;-69
2023/02/17 00:34:27;;;;;;;12.43;11.13;;;;;;;;;;4987446;28;20263;-69
2023/02/17 00:36:52;;;;;;;11.33;10.23;;;;;;;;;;4984605;28;20675;-69
2023/02/17 00:39:17;;;;;;;11.03;10.03;;;;;;;;;;4983574;28;20432;-69
2023/02/17 00:41:43;;;;;;;13.50;11.43;;;;;;;;;;4986089;28;20192;-69
2023/02/17 00:44:17;;;;;;;12.20;11.00;;;;;;;;;;4995781;28;20202;-69
2023/02/17 00:46:42;;;;;;;11.23;10.13;;;;;;;;;;4983008;28;20194;-69
2023/02/17 00:49:09;;;;;;;11.87;10.67;;;;;;;;;;4979668;28;20965;-69
2023/02/17 00:51:34;;;;;;;12.47;11.17;;;;;;;;;;4986244;28;20643;-69
2023/02/17 00:53:59;;;;;;;12.73;11.40;;;;;;;;;;4986610;28;20452;-69
2023/02/17 00:56:25;;;;;;;12.73;11.43;;;;;;;;;;4989077;28;20617;-69
2023/02/17 00:58:50;;;;;;;12.20;11.00;;;;;;;;;;4989331;28;20197;-69
2023/02/17 01:01:15;;;;;;;13.50;12.10;;;;;;;;;;4991356;28;20647;-69
2023/02/17 01:03:41;;;;;;;13.53;12.13;;;;;;;;;;4988422;28;20229;-69
2023/02/17 01:06:07;;;;;;;14.80;13.30;;;;;;;;;;4987177;28;20189;-69
2023/02/17 01:08:33;;;;;;;12.77;11.57;;;;;;;;;;4984716;28;20232;-69
2023/02/17 01:10:58;;;;;;;13.57;12.20;;;;;;;;;;4991336;28;20412;-69
2023/02/17 01:13:23;;;;;;;15.33;13.70;;;;;;;;;;4983218;28;20213;-69
2023/02/17 01:15:49;;;;;;;16.47;14.77;;;;;;;;;;4990435;28;20189;-69
2023/02/17 01:18:15;;;;;;;18.10;14.60;;;;;;;;;;4988319;28;20217;-69
2023/02/17 01:20:40;;;;;;;17.40;15.47;;;;;;;;;;4991069;28;20455;-69
2023/02/17 01:23:06;;;;;;;15.60;13.90;;;;;;;;;;4988705;28;20688;-69
2023/02/17 01:25:35;;;;;;;17.00;15.30;;;;;;;;;;4988654;28;20185;-69
2023/02/17 01:28:00;;;;;;;17.27;15.57;;;;;;;;;;4979050;28;20461;-69
2023/02/17 01:30:25;;;;;;;16.50;14.80;;;;;;;;;;4978801;28;20580;-70
2023/02/17 01:32:51;;;;;;;16.80;15.10;;;;;;;;;;4976522;28;20190;-69
2023/02/17 01:35:16;;;;;;;19.30;17.40;;;;;;;;;;4986517;28;20566;-69
2023/02/17 01:37:41;;;;;;;19.10;17.20;;;;;;;;;;4977795;28;20255;-69
2023/02/17 01:40:07;;;;;;;21.67;16.97;;;;;;;;;;4984699;28;20711;-70
2023/02/17 01:42:32;;;;;;;19.10;17.03;;;;;;;;;;4983846;28;20202;-70
2023/02/17 01:45:16;;;;;;;21.17;18.97;;;;;;;;;;4983912;28;20201;-69
2023/02/17 01:47:42;;;;;;;20.93;18.20;;;;;;;;;;4977586;28;20614;-69
2023/02/17 01:50:07;;;;;;;21.30;19.10;;;;;;;;;;4980117;28;20852;-69
2023/02/17 01:52:33;;;;;;;25.77;20.43;;;;;;;;;;4974878;28;21980;-69
2023/02/17 01:54:59;;;;;;;27.50;21.23;;;;;;;;;;4978232;28;20428;-69
2023/02/17 01:57:26;;;;;;;27.13;22.90;;;;;;;;;;4979933;28;20189;-69
2023/02/17 01:59:51;;;;;;;26.50;22.97;;;;;;;;;;4987642;28;20460;-69
2023/02/17 02:02:17;;;;;;;30.53;23.97;;;;;;;;;;4976207;28;20472;-69
2023/02/17 02:04:44;;;;;;;28.70;22.83;;;;;;;;;;4980088;28;20210;-69
2023/02/17 02:07:12;;;;;;;31.30;24.20;;;;;;;;;;4982597;28;20670;-69
2023/02/17 02:09:40;;;;;;;33.53;25.20;;;;;;;;;;4986966;28;20441;-69
2023/02/17 02:12:23;;;;;;;31.00;25.60;;;;;;;;;;4984825;28;20424;-69
2023/02/17 02:14:49;;;;;;;35.70;29.20;;;;;;;;;;4979946;28;20464;-69
2023/02/17 02:17:24;;;;;;;32.50;27.73;;;;;;;;;;4982298;28;20445;-69
2023/02/17 02:19:52;;;;;;;34.60;27.30;;;;;;;;;;4981785;28;20436;-69
2023/02/17 02:22:32;;;;;;;35.63;26.30;;;;;;;;;;4983091;28;20970;-69
2023/02/17 02:24:57;;;;;;;38.23;27.30;;;;;;;;;;4979106;28;20973;-70
2023/02/17 02:27:39;;;;;;;29.53;26.13;;;;;;;;;;4979669;28;20509;-70
2023/02/17 02:30:11;;;;;;;35.10;26.40;;;;;;;;;;4975768;28;20655;-70
2023/02/17 02:32:42;;;;;;;34.37;28.17;;;;;;;;;;4978356;28;20898;-70
2023/02/17 02:35:11;;;;;;;34.30;27.80;;;;;;;;;;4970256;28;20441;-70
2023/02/17 02:37:59;;;;;;;34.03;25.33;;;;;;;;;;4970866;28;20513;-71
2023/02/17 02:40:28;;;;;;;31.47;26.80;;;;;;;;;;4972928;28;20476;-70
2023/02/17 02:42:53;;;;;;;35.83;28.47;;;;;;;;;;4974970;28;21011;-70
2023/02/17 02:45:18;;;;;;;32.57;27.57;;;;;;;;;;4981671;28;20449;-71
2023/02/17 02:47:48;;;;;;;35.43;27.80;;;;;;;;;;4981490;28;20275;-71
2023/02/17 02:50:16;;;;;;;36.50;29.87;;;;;;;;;;4982706;28;20213;-70
2023/02/17 02:53:05;;;;;;;32.40;26.30;;;;;;;;;;4979440;28;20451;-70
2023/02/17 02:55:30;;;;;;;34.07;27.50;;;;;;;;;;4980684;28;20433;-70
2023/02/17 02:57:58;;;;;;;37.03;28.07;;;;;;;;;;4971914;28;20508;-71
2023/02/17 03:00:28;;;;;;;33.30;26.60;;;;;;;;;;4972659;28;20187;-71
2023/02/17 03:03:00;;;;;;;45.50;26.20;;;;;;;;;;4982494;28;20472;-70
2023/02/17 03:05:29;;;;;;;33.07;25.93;;;;;;;;;;4979635;28;20425;-70
2023/02/17 03:07:57;;;;;;;36.97;26.23;;;;;;;;;;4978247;28;20445;-70
2023/02/17 03:10:22;;;;;;;41.23;26.33;;;;;;;;;;4979211;28;20452;-70
2023/02/17 03:12:48;;;;;;;34.87;28.50;;;;;;;;;;4975755;28;20440;-70
2023/02/17 03:15:22;;;;;;;33.67;28.40;;;;;;;;;;4978794;28;20670;-70
2023/02/17 03:17:47;;;;;;;35.27;27.97;;;;;;;;;;4982466;28;20272;-70
2023/02/17 03:20:13;;;;;;;41.57;27.37;;;;;;;;;;4981594;28;20839;-70
2023/02/17 03:22:40;;;;;;;35.67;26.20;;;;;;;;;;4977961;28;20210;-69
2023/02/17 03:25:06;;;;;;;36.07;26.47;;;;;;;;;;4978817;28;20439;-70
2023/02/17 03:27:31;;;;;;;37.80;26.53;;;;;;;;;;4980001;28;20433;-70
2023/02/17 03:29:56;;;;;;;40.70;28.43;;;;;;;;;;4981183;28;20276;-70
2023/02/17 03:32:22;;;;;;;34.30;27.33;;;;;;;;;;4977522;28;20937;-71
2023/02/17 03:34:47;;;;;;;33.03;26.97;;;;;;;;;;4983193;28;20202;-71
2023/02/17 03:37:12;;;;;;;31.37;26.77;;;;;;;;;;4983328;28;20196;-70
2023/02/17 03:39:37;;;;;;;41.33;28.33;;;;;;;;;;4979563;28;20189;-70
2023/02/17 03:42:03;;;;;;;36.73;28.10;;;;;;;;;;4981889;28;20693;-70
2023/02/17 03:44:28;;;;;;;30.33;25.33;;;;;;;;;;4981354;28;20202;-70
2023/02/17 03:46:53;;;;;;;33.30;27.17;;;;;;;;;;4975263;28;20204;-71
2023/02/17 03:49:19;;;;;;;33.57;28.17;;;;;;;;;;4982972;28;20642;-71
2023/02/17 03:51:44;;;;;;;40.13;28.63;;;;;;;;;;4983772;28;20177;-71
2023/02/17 03:54:09;;;;;;;37.23;27.00;;;;;;;;;;4976488;28;20209;-71
2023/02/17 03:56:34;;;;;;;33.70;26.90;;;;;;;;;;4981203;28;21136;-70
2023/02/17 03:59:00;;;;;;;43.43;27.97;;;;;;;;;;4971969;28;20186;-70
2023/02/17 04:01:25;;;;;;;36.33;26.07;;;;;;;;;;4981261;28;20621;-71
2023/02/17 04:03:50;;;;;;;36.97;28.07;;;;;;;;;;4985075;28;20232;-70
2023/02/17 04:06:16;;;;;;;41.20;28.30;;;;;;;;;;4979125;28;20181;-71
2023/02/17 04:08:41;;;;;;;39.30;27.83;;;;;;;;;;4980648;28;20177;-70
2023/02/17 04:11:07;;;;;;;33.70;26.67;;;;;;;;;;4982881;28;20184;-70
2023/02/17 04:13:32;;;;;;;41.20;29.00;;;;;;;;;;4997315;28;20217;-71
2023/02/17 04:16:00;;;;;;;41.10;27.83;;;;;;;;;;5001351;23;20884;-72
2023/02/17 04:18:25;;;;;;;39.30;28.73;;;;;;;;;;4985466;28;20560;-73
2023/02/17 04:20:51;;;;;;;35.40;26.73;;;;;;;;;;4999879;28;20542;-73
2023/02/17 04:23:17;;;;;;;34.17;27.20;;;;;;;;;;5001049;28;20209;-72
2023/02/17 04:25:43;;;;;;;34.00;24.97;;;;;;;;;;5000747;28;20488;-73
2023/02/17 04:28:10;;;;;;;35.90;27.97;;;;;;;;;;5000637;28;20181;-73
2023/02/17 04:30:35;;;;;;;42.10;28.83;;;;;;;;;;4996663;28;20186;-72
2023/02/17 04:33:01;;;;;;;36.33;26.97;;;;;;;;;;5004558;28;21492;-73
2023/02/17 04:35:26;;;;;;;35.80;26.30;;;;;;;;;;5004476;28;20274;-73
2023/02/17 04:37:52;;;;;;;33.10;25.00;;;;;;;;;;5000387;28;20559;-73
2023/02/17 04:40:17;;;;;;;38.20;26.57;;;;;;;;;;5002186;28;20649;-73
2023/02/17 04:42:43;;;;;;;34.93;25.40;;;;;;;;;;5003383;28;20204;-73
2023/02/17 04:45:08;;;;;;;27.37;23.60;;;;;;;;;;4995129;28;20197;-73
2023/02/17 04:47:33;;;;;;;31.80;24.60;;;;;;;;;;5006758;28;20567;-72
2023/02/17 04:49:59;;;;;;;36.93;26.50;;;;;;;;;;5008256;28;20499;-73
2023/02/17 04:52:24;;;;;;;34.60;24.93;;;;;;;;;;5003758;28;20188;-73
2023/02/17 04:54:49;;;;;;;29.50;22.97;;;;;;;;;;4995774;28;20721;-73
2023/02/17 04:57:15;;;;;;;34.47;24.07;;;;;;;;;;5002029;28;20185;-74
2023/02/17 04:59:40;;;;;;;27.77;23.83;;;;;;;;;;5003886;28;20671;-73
2023/02/17 05:02:05;;;;;;;31.80;23.53;;;;;;;;;;5005139;28;20208;-73
2023/02/17 05:04:30;;;;;;;34.80;24.47;;;;;;;;;;5004813;28;20622;-73
2023/02/17 05:06:56;;;;;;;35.43;23.70;;;;;;;;;;5005084;28;20756;-73
2023/02/17 05:09:21;;;;;;;37.27;25.93;;;;;;;;;;5003296;28;20185;-73
2023/02/17 05:11:46;;;;;;;45.10;25.83;;;;;;;;;;4998718;28;20192;-73
2023/02/17 05:14:12;;;;;;;32.67;25.30;;;;;;;;;;5001713;28;20234;-73
2023/02/17 05:16:37;;;;;;;33.47;26.30;;;;;;;;;;5005581;28;20651;-74
2023/02/17 05:19:03;;;;;;;33.27;22.50;;;;;;;;;;5003476;28;20193;-73
2023/02/17 05:21:28;;;;;;;32.60;22.47;;;;;;;;;;4998672;28;20451;-73
2023/02/17 05:23:53;;;;;;;31.97;24.50;;;;;;;;;;5001194;28;20251;-73
2023/02/17 05:26:18;;;;;;;34.40;22.23;;;;;;;;;;5008102;28;20567;-75
2023/02/17 05:28:44;;;;;;;29.07;22.00;;;;;;;;;;5000591;28;20220;-75
2023/02/17 05:31:09;;;;;;;31.80;22.60;;;;;;;;;;5002533;28;20634;-74
2023/02/17 05:33:34;;;;;;;35.30;23.93;;;;;;;;;;5003869;28;20181;-75
2023/02/17 05:36:01;;;;;;;28.03;22.13;;;;;;;;;;5003513;28;20215;-75
2023/02/17 05:38:26;;;;;;;28.53;22.20;;;;;;;;;;5001254;28;20174;-74
2023/02/17 05:40:52;;;;;;;36.67;21.23;;;;;;;;;;5006398;28;20494;-74
2023/02/17 05:43:17;;;;;;;32.17;22.00;;;;;;;;;;5006329;28;20527;-74
2023/02/17 05:45:42;;;;;;;29.53;22.13;;;;;;;;;;5005522;28;20226;-74
2023/02/17 05:48:07;;;;;;;27.50;22.40;;;;;;;;;;5000768;28;20243;-74
2023/02/17 05:50:33;;;;;;;24.97;20.23;;;;;;;;;;5002551;28;20184;-73
2023/02/17 05:52:58;;;;;;;25.60;20.60;;;;;;;;;;5006486;28;20204;-74
2023/02/17 05:55:23;;;;;;;25.13;20.37;;;;;;;;;;5002004;28;20224;-74
2023/02/17 05:57:48;;;;;;;22.10;17.50;;;;;;;;;;5001167;28;20565;-74
2023/02/17 06:00:14;;;;;;;23.73;18.10;;;;;;;;;;5003126;28;20213;-74
2023/02/17 06:02:39;;;;;;;31.80;19.23;;;;;;;;;;5001298;28;20236;-75
2023/02/17 06:05:05;;;;;;;27.13;19.47;;;;;;;;;;5004036;28;20202;-74
2023/02/17 06:07:30;;;;;;;21.17;17.20;;;;;;;;;;5002258;28;20185;-74
2023/02/17 06:09:55;;;;;;;23.13;17.77;;;;;;;;;;5004520;28;20188;-73
2023/02/17 06:12:21;;;;;;;24.87;17.73;;;;;;;;;;5002615;28;20650;-73
2023/02/17 06:14:46;;;;;;;23.40;17.93;;;;;;;;;;4999184;28;20218;-74
2023/02/17 06:17:11;;;;;;;19.67;16.43;;;;;;;;;;5004591;28;20188;-74
2023/02/17 06:19:37;;;;;;;18.03;14.57;;;;;;;;;;4990214;28;20208;-73
2023/02/17 06:22:02;;;;;;;20.03;15.23;;;;;;;;;;5001758;28;20191;-74
2023/02/17 06:24:27;;;;;;;20.97;16.30;;;;;;;;;;5006891;28;20181;-74
2023/02/17 06:26:52;;;;;;;17.87;15.17;;;;;;;;;;5006756;28;20181;-73
2023/02/17 06:29:18;;;;;;;17.63;14.93;;;;;;;;;;4999158;28;20558;-73
2023/02/17 06:31:43;;;;;;;20.57;15.50;;;;;;;;;;4999597;28;20179;-74
2023/02/17 06:34:08;;;;;;;16.70;14.67;;;;;;;;;;5006001;28;20188;-74
2023/02/17 06:36:34;;;;;;;20.67;14.60;;;;;;;;;;5007269;28;20197;-73
2023/02/17 06:38:59;;;;;;;16.00;13.23;;;;;;;;;;5000986;28;20192;-74
2023/02/17 06:41:24;;;;;;;16.80;14.57;;;;;;;;;;5003988;28;20170;-74
2023/02/17 06:43:49;;;;;;;16.83;14.60;;;;;;;;;;4995089;28;20193;-74
2023/02/17 06:46:15;;;;;;;19.40;16.83;;;;;;;;;;5006454;28;20225;-74
2023/02/17 06:48:40;;;;;;;20.03;17.27;;;;;;;;;;5000171;28;20207;-74
2023/02/17 06:51:05;;;;;;;19.20;16.03;;;;;;;;;;5005803;28;20228;-74
2023/02/17 06:53:30;;;;;;;21.70;17.43;;;;;;;;;;5005961;28;20189;-75
2023/02/17 06:55:57;;;;;;;23.60;17.07;;;;;;;;;;5005198;28;20241;-74
2023/02/17 06:58:22;;;;;;;25.60;18.70;;;;;;;;;;5003915;28;20871;-72
2023/02/17 07:00:47;;;;;;;26.70;20.00;;;;;;;;;;4999325;28;20185;-72
2023/02/17 07:03:13;;;;;;;23.97;19.73;;;;;;;;;;5001246;28;20327;-72
2023/02/17 07:05:39;;;;;;;24.77;21.73;;;;;;;;;;5007129;28;20200;-72
2023/02/17 07:08:05;;;;;;;34.43;20.87;;;;;;;;;;5002502;28;20239;-72
2023/02/17 07:10:30;;;;;;;33.03;23.33;;;;;;;;;;5005081;28;20181;-74
2023/02/17 07:12:55;;;;;;;29.77;23.63;;;;;;;;;;5005597;28;20416;-75
2023/02/17 07:15:21;;;;;;;31.60;24.33;;;;;;;;;;5000726;28;20224;-75
2023/02/17 07:17:46;;;;;;;33.30;23.50;;;;;;;;;;5005065;28;20196;-72
2023/02/17 07:20:11;;;;;;;39.93;25.70;;;;;;;;;;4999192;28;20192;-73
2023/02/17 07:22:37;;;;;;;34.77;24.73;;;;;;;;;;5004047;28;20208;-72
2023/02/17 07:25:03;;;;;;;33.83;25.10;;;;;;;;;;5006727;28;20227;-75
2023/02/17 07:27:29;;;;;;;36.87;26.10;;;;;;;;;;5003695;28;20177;-75
2023/02/17 07:29:54;;;;;;;36.87;25.57;;;;;;;;;;5002229;28;20847;-73
2023/02/17 07:32:19;;;;;;;32.43;23.97;;;;;;;;;;5006925;28;20184;-73
2023/02/17 07:34:44;;;;;;;38.87;25.17;;;;;;;;;;5007522;28;20200;-74
2023/02/17 07:37:10;;;;;;;32.50;24.40;;;;;;;;;;5008325;28;20181;-74
2023/02/17 07:39:35;;;;;;;39.13;25.57;;;;;;;;;;5003238;28;20181;-73
2023/02/17 07:42:03;;;;;;;35.40;23.93;;;;;;;;;;5006032;28;20184;-74
2023/02/17 07:44:29;;;;;;;34.50;23.70;;;;;;;;;;5007692;28;20837;-73
2023/02/17 07:46:54;;;;;;;34.57;23.30;;;;;;;;;;5003171;28;20847;-74
2023/02/17 07:49:19;;;;;;;31.97;22.27;;;;;;;;;;5006878;28;20180;-74
2023/02/17 07:51:44;;;;;;;38.67;23.97;;;;;;;;;;4998115;28;20187;-74
2023/02/17 07:54:12;;;;;;;38.03;23.60;;;;;;;;;;4996665;28;20250;-74
2023/02/17 07:56:37;;;;;;;35.93;25.17;;;;;;;;;;4991627;28;20253;-71
2023/02/17 07:59:02;;;;;;;41.37;23.60;;;;;;;;;;4987339;28;20520;-73
2023/02/17 08:01:28;;;;;;;38.63;21.97;;;;;;;;;;4994578;28;20606;-72
2023/02/17 08:03:54;;;;;;;36.30;22.93;;;;;;;;;;4997796;28;20216;-72
2023/02/17 08:06:21;;;;;;;42.13;24.37;;;;;;;;;;5006491;28;20379;-73
2023/02/17 08:14:15;;;;;;;36.63;22.10;;;;;;;;;;5002610;28;20799;-73
2023/02/17 08:16:40;;;;;;;35.63;24.60;;;;;;;;;;5001862;28;20468;-73
2023/02/17 08:19:05;;;;;;;37.20;23.90;;;;;;;;;;4998218;28;20191;-73
2023/02/17 08:21:31;;;;;;;45.07;22.60;;;;;;;;;;4998328;28;20226;-73
2023/02/17 08:23:56;;;;;;;36.53;22.63;;;;;;;;;;4997433;28;20266;-73
2023/02/17 08:26:22;;;;;;;36.33;23.07;;;;;;;;;;4997953;28;20296;-73
2023/02/17 08:28:50;;;;;;;42.53;22.47;;;;;;;;;;5003905;28;20248;-74
2023/02/17 08:31:20;;;;;;;33.43;23.03;;;;;;;;;;5001094;28;20181;-72
2023/02/17 08:33:45;;;;;;;42.33;23.37;;;;;;;;;;5003999;28;20424;-72
2023/02/17 08:36:11;;;;;;;41.23;22.03;;;;;;;;;;5004946;28;20828;-72
2023/02/17 08:38:37;;;;;;;32.60;19.90;;;;;;;;;;5001468;28;20189;-72
2023/02/17 08:41:10;;;;;;;39.53;21.07;;;;;;;;;;4998166;28;20268;-72
2023/02/17 08:43:35;;;;;;;42.73;24.40;;;;;;;;;;4997523;28;20212;-72
2023/02/17 08:46:00;;;;;;;42.00;22.30;;;;;;;;;;5007524;28;21340;-72
2023/02/17 08:48:26;;;;;;;39.90;19.83;;;;;;;;;;5002105;28;20176;-72
2023/02/17 08:50:51;;;;;;;35.10;21.10;;;;;;;;;;4998762;28;20177;-72
2023/02/17 08:53:16;;;;;;;33.43;21.30;;;;;;;;;;4998900;28;20553;-72
2023/02/17 08:55:42;;;;;;;40.93;20.73;;;;;;;;;;5007190;28;20205;-72
2023/02/17 08:58:07;;;;;;;34.33;20.50;;;;;;;;;;4998667;28;20169;-72
2023/02/17 09:00:32;;;;;;;36.67;19.87;;;;;;;;;;5003883;28;20236;-73
2023/02/17 09:02:57;;;;;;;28.73;19.47;;;;;;;;;;5005161;28;20573;-72
2023/02/17 09:05:23;;;;;;;34.63;19.60;;;;;;;;;;5005198;28;20193;-72
2023/02/17 09:07:48;;;;;;;32.00;19.40;;;;;;;;;;5001272;28;20238;-72
2023/02/17 09:10:13;;;;;;;43.90;20.13;;;;;;;;;;5002639;28;20181;-72
2023/02/17 09:12:39;;;;;;;41.53;20.90;;;;;;;;;;5000915;28;20173;-72
2023/02/17 09:15:04;;;;;;;37.43;18.87;;;;;;;;;;5002013;28;20215;-72
2023/02/17 09:17:30;;;;;;;42.10;20.60;;;;;;;;;;5009132;28;20276;-72
2023/02/17 09:19:55;;;;;;;35.00;17.90;;;;;;;;;;5008756;28;20712;-71
2023/02/17 09:22:20;;;;;;;31.50;16.03;;;;;;;;;;5007543;28;20217;-72
2023/02/17 09:24:45;;;;;;;35.90;17.50;;;;;;;;;;5009162;28;20256;-72
2023/02/17 09:27:11;;;;;;;28.03;16.80;;;;;;;;;;5010330;28;20181;-71
2023/02/17 09:29:37;;;;;;;30.13;17.07;;;;;;;;;;5004021;28;20184;-72
2023/02/17 09:32:06;;;;;;;34.23;15.27;;;;;;;;;;5004794;28;20223;-72
2023/02/17 09:34:33;;;;;;;25.83;15.50;;;;;;;;;;5007737;28;20664;-72
2023/02/17 09:36:58;;;;;;;25.10;16.30;;;;;;;;;;5006157;28;20466;-72
2023/02/17 09:39:25;;;;;;;22.90;13.97;;;;;;;;;;5007030;28;20416;-72
2023/02/17 09:41:52;;;;;;;25.00;13.97;;;;;;;;;;5007279;28;20247;-72
2023/02/17 09:44:24;;;;;;;25.50;12.63;;;;;;;;;;5006229;28;20525;-73
2023/02/17 09:46:56;;;;;;;23.50;12.87;;;;;;;;;;5000125;28;20435;-72
2023/02/17 09:49:24;;;;;;;29.53;14.60;;;;;;;;;;5006595;28;20415;-72
2023/02/17 09:51:55;;;;;;;20.37;11.90;;;;;;;;;;5004221;28;20462;-72
2023/02/17 09:54:26;;;;;;;24.90;12.83;;;;;;;;;;5005991;28;20412;-72
2023/02/17 09:56:53;;;;;;;20.73;12.77;;;;;;;;;;5007716;28;20420;-72
2023/02/17 09:59:27;;;;;;;21.43;12.93;;;;;;;;;;5009465;28;20451;-72
2023/02/17 10:01:54;;;;;;;23.83;11.17;;;;;;;;;;5005140;28;20432;-72
2023/02/17 10:04:28;;;;;;;22.97;11.13;;;;;;;;;;5004181;28;20468;-72
2023/02/17 10:07:01;;;;;;;25.10;12.13;;;;;;;;;;5004973;28;20431;-72
2023/02/17 10:09:39;;;;;;;17.03;11.70;;;;;;;;;;4999040;28;20470;-72
2023/02/17 10:12:23;;;;;;;16.03;9.90;;;;;;;;;;5007926;28;20457;-72
2023/02/17 10:14:54;;;;;;;15.40;10.40;;;;;;;;;;5006951;28;20428;-72
2023/02/17 10:17:25;;;;;;;22.57;9.70;;;;;;;;;;5006580;28;20435;-71
2023/02/17 10:19:57;;;;;;;16.40;11.03;;;;;;;;;;5005934;28;20695;-71
2023/02/17 10:22:22;;;;;;;17.43;9.90;;;;;;;;;;5009119;28;20499;-72
2023/02/17 10:24:48;;;;;;;19.87;9.47;;;;;;;;;;5006884;28;20502;-72
2023/02/17 10:27:21;;;;;;;18.90;9.50;;;;;;;;;;5008977;28;20205;-71
2023/02/17 10:29:55;;;;;;;21.57;10.23;;;;;;;;;;5002041;28;20243;-72
2023/02/17 10:32:25;;;;;;;16.03;9.13;;;;;;;;;;5002653;28;20437;-72
2023/02/17 10:34:50;;;;;;;14.40;9.00;;;;;;;;;;5005491;28;20459;-72
2023/02/17 10:37:34;;;;;;;20.97;9.07;;;;;;;;;;5006809;28;20428;-72
2023/02/17 10:40:01;;;;;;;19.80;8.40;;;;;;;;;;5004149;28;20182;-73
2023/02/17 10:42:26;;;;;;;23.33;8.40;;;;;;;;;;5003800;28;20504;-72
2023/02/17 10:44:53;;;;;;;15.03;6.97;;;;;;;;;;5001726;28;20491;-72
2023/02/17 10:47:19;;;;;;;24.80;8.67;;;;;;;;;;5004119;28;20704;-72
2023/02/17 10:49:48;;;;;;;14.90;7.90;;;;;;;;;;5005552;28;20440;-72
2023/02/17 10:52:18;;;;;;;13.67;6.67;;;;;;;;;;5002893;28;20944;-72
2023/02/17 10:55:18;;;;;;;13.57;6.20;;;;;;;;;;5002609;28;20444;-72
2023/02/17 10:57:45;;;;;;;11.50;6.00;;;;;;;;;;4964098;28;20969;-72
2023/02/17 11:00:19;;;;;;;14.03;6.77;;;;;;;;;;4997163;28;20432;-72
2023/02/17 11:02:45;;;;;;;14.40;6.10;;;;;;;;;;5008202;28;20464;-72
2023/02/17 11:05:22;;;;;;;17.13;6.63;;;;;;;;;;5008098;28;20439;-72
2023/02/17 11:07:53;;;;;;;13.80;6.07;;;;;;;;;;5005168;28;20554;-72
2023/02/17 11:10:45;;;;;;;12.50;5.63;;;;;;;;;;5004288;28;20452;-72
2023/02/17 11:13:26;;;;;;;11.20;5.43;;;;;;;;;;5006014;28;20421;-72
2023/02/17 11:15:52;;;;;;;17.47;5.67;;;;;;;;;;5005995;28;20495;-72
2023/02/17 11:18:19;;;;;;;10.13;4.90;;;;;;;;;;5005327;28;21171;-72
2023/02/17 11:20:45;;;;;;;15.13;6.20;;;;;;;;;;5006661;28;20295;-72
2023/02/17 11:23:13;;;;;;;14.57;6.30;;;;;;;;;;5006329;28;20551;-73
2023/02/17 11:25:38;;;;;;;12.50;4.93;;;;;;;;;;5004958;28;20193;-72
2023/02/17 11:28:05;;;;;;;10.70;4.60;;;;;;;;;;5007546;28;20414;-72
2023/02/17 11:30:31;;;;;;;15.40;4.83;;;;;;;;;;5004074;28;20355;-72
2023/02/17 11:32:57;;;;;;;14.47;5.57;;;;;;;;;;5002258;28;20931;-72
2023/02/17 11:35:31;;;;;;;14.43;4.53;;;;;;;;;;5004483;28;20539;-72
2023/02/17 11:38:00;;;;;;;14.57;5.03;;;;;;;;;;5000261;28;20268;-72
2023/02/17 11:40:27;;;;;;;12.60;4.10;;;;;;;;;;4990335;28;20441;-72
2023/02/17 11:42:56;;;;;;;13.77;5.20;;;;;;;;;;4997517;28;20474;-72
2023/02/17 11:45:22;;;;;;;12.07;4.40;;;;;;;;;;4998197;28;20535;-72
2023/02/17 11:47:52;;;;;;;13.73;4.20;;;;;;;;;;5005664;28;20460;-73
2023/02/17 11:50:35;;;;;;;14.93;4.27;;;;;;;;;;4998931;28;20654;-72
2023/02/17 11:53:13;;;;;;;9.83;3.87;;;;;;;;;;5006457;28;20427;-72
2023/02/17 11:55:49;;;;;;;8.03;3.30;;;;;;;;;;5002203;28;20451;-73
2023/02/17 11:58:33;;;;;;;8.00;3.70;;;;;;;;;;5003916;28;20440;-73
2023/02/17 12:01:18;;;;;;;15.87;3.87;;;;;;;;;;5004746;28;20447;-72
2023/02/17 12:04:16;;;;;;;13.70;4.13;;;;;;;;;;5004578;28;21024;-72
2023/02/17 12:06:56;;;;;;;12.27;3.33;;;;;;;;;;4983239;28;20444;-72
2023/02/17 12:09:22;;;;;;;11.43;3.67;;;;;;;;;;5001407;28;20799;-72
2023/02/17 12:12:03;;;;;;;7.47;3.23;;;;;;;;;;5005387;28;20459;-73
2023/02/17 12:14:48;;;;;;;12.20;3.88;;;;;;;;;;5004432;28;20427;-71
2023/02/17 12:17:19;;;;;;;11.63;3.67;;;;;;;;;;5005860;28;20191;-72
2023/02/17 12:19:55;;;;;;;13.40;3.70;;;;;;;;;;5004785;28;20416;-72
2023/02/17 12:22:20;;;;;;;12.63;3.33;;;;;;;;;;5004898;28;20797;-72
2023/02/17 12:24:58;;;;;;;9.40;2.70;;;;;;;;;;4998285;28;20440;-72
2023/02/17 12:27:42;;;;;;;10.57;2.87;;;;;;;;;;5006132;28;20268;-73
2023/02/17 12:30:07;;;;;;;8.90;2.30;;;;;;;;;;5002168;28;20971;-73
2023/02/17 12:32:39;;;;;;;8.60;3.00;;;;;;;;;;5005029;28;20432;-73
2023/02/17 12:35:23;;;;;;;15.10;2.43;;;;;;;;;;5002588;28;20197;-73
2023/02/17 12:38:01;;;;;;;11.77;3.77;;;;;;;;;;5002431;28;20434;-73
2023/02/17 12:40:29;;;;;;;17.20;2.93;;;;;;;;;;5005655;28;20442;-73
2023/02/17 12:43:00;;;;;;;11.90;2.83;;;;;;;;;;4992119;28;20459;-72
2023/02/17 12:45:32;;;;;;;13.87;3.20;;;;;;;;;;5006493;28;20478;-73
2023/02/17 12:48:16;;;;;;;9.23;2.63;;;;;;;;;;5002271;28;20460;-72
2023/02/17 12:50:49;;;;;;;7.20;3.33;;;;;;;;;;5006935;28;20983;-73
2023/02/17 12:53:20;;;;;;;10.90;3.40;;;;;;;;;;5000666;28;20573;-72
2023/02/17 12:55:49;;;;;;;12.67;2.87;;;;;;;;;;5008189;28;20503;-73
2023/02/17 12:58:17;;;;;;;9.93;2.40;;;;;;;;;;5007994;28;20575;-73
2023/02/17 13:00:48;;;;;;;7.83;3.10;;;;;;;;;;5003434;28;20450;-72
2023/02/17 13:03:13;;;;;;;10.67;2.23;;;;;;;;;;5005238;28;20659;-72
2023/02/17 13:05:50;;;;;;;17.33;3.27;;;;;;;;;;5002105;28;20526;-71
2023/02/17 13:08:22;;;;;;;10.10;2.77;;;;;;;;;;5007375;28;20705;-71
2023/02/17 13:10:58;;;;;;;14.00;2.80;;;;;;;;;;5009863;28;20450;-73
2023/02/17 13:13:28;;;;;;;10.30;3.80;;;;;;;;;;5003668;28;20412;-73
2023/02/17 13:16:02;;;;;;;5.57;2.30;;;;;;;;;;5004586;28;20455;-72
2023/02/17 13:18:32;;;;;;;10.20;2.57;;;;;;;;;;5004971;28;20923;-72
2023/02/17 13:20:59;;;;;;;10.13;2.77;;;;;;;;;;5001795;28;20431;-72
2023/02/17 13:23:27;;;;;;;7.60;2.40;;;;;;;;;;5002539;28;20471;-70
2023/02/17 13:26:13;;;;;;;5.60;2.20;;;;;;;;;;4994135;28;20451;-71
2023/02/17 13:28:39;;;;;;;12.70;2.93;;;;;;;;;;4998257;28;20880;-72
2023/02/17 13:31:15;;;;;;;7.77;2.40;;;;;;;;;;5011845;28;20494;-70
2023/02/17 13:33:43;;;;;;;11.00;2.40;;;;;;;;;;4997234;28;20443;-71
2023/02/17 13:36:31;;;;;;;8.67;3.13;;;;;;;;;;4989730;28;20467;-71
2023/02/17 13:39:15;;;;;;;9.60;2.40;;;;;;;;;;4989457;28;20480;-70
2023/02/17 13:41:45;;;;;;;9.50;2.33;;;;;;;;;;4997355;28;20486;-71
2023/02/17 13:44:36;;;;;;;7.40;2.20;;;;;;;;;;5005932;28;20510;-71
2023/02/17 13:47:05;;;;;;;5.90;2.10;;;;;;;;;;4998638;28;20960;-72
2023/02/17 13:49:32;;;;;;;12.97;2.20;;;;;;;;;;5001114;28;20786;-72
2023/02/17 13:52:17;;;;;;;12.30;2.87;;;;;;;;;;5000421;28;20431;-71
2023/02/17 13:54:53;;;;;;;12.73;2.60;;;;;;;;;;5000111;28;20554;-71
2023/02/17 13:57:22;;;;;;;15.30;3.13;;;;;;;;;;5001393;28;20523;-71
2023/02/17 13:59:47;;;;;;;8.90;3.07;;;;;;;;;;5003330;28;20427;-71
2023/02/17 14:02:19;;;;;;;10.73;2.87;;;;;;;;;;4995627;28;20443;-71
2023/02/17 14:04:44;;;;;;;10.03;2.27;;;;;;;;;;4998099;28;20207;-70
2023/02/17 14:07:10;;;;;;;12.83;3.00;;;;;;;;;;4994598;28;20435;-71
2023/02/17 14:09:35;;;;;;;16.93;2.80;;;;;;;;;;4993828;28;20188;-71
2023/02/17 14:12:03;;;;;;;14.57;2.50;;;;;;;;;;5000285;28;20215;-70
2023/02/17 14:14:30;;;;;;;10.80;2.80;;;;;;;;;;4999986;28;20189;-73
2023/02/17 14:17:06;;;;;;;12.80;2.70;;;;;;;;;;4996287;28;20443;-71
2023/02/17 14:19:45;;;;;;;10.23;2.87;;;;;;;;;;4996176;28;20443;-71
2023/02/17 14:22:22;;;;;;;17.37;4.00;;;;;;;;;;4995132;28;20439;-71
2023/02/17 14:24:56;;;;;;;15.90;3.73;;;;;;;;;;5005101;28;20493;-72
2023/02/17 14:27:21;;;;;;;18.97;4.43;;;;;;;;;;5004337;28;20425;-71
2023/02/17 14:29:47;;;;;;;18.07;4.63;;;;;;;;;;4999155;28;20858;-71
2023/02/17 14:32:36;;;;;;;16.63;4.37;;;;;;;;;;5000395;28;20200;-73